createdAt,value
2022-08-10T00:00:01.056Z,42.77
2022-08-10T00:02:51.274Z,43.04
2022-08-10T00:05:43.562Z,42.91
2022-08-10T00:08:40.756Z,42.75
2022-08-10T00:11:28.868Z,42.91
2022-08-10T00:14:17.049Z,42.94
2022-08-10T00:17:05.483Z,42.90
2022-08-10T00:20:02.581Z,42.33
2022-08-10T00:22:57.379Z,40.79
2022-08-10T00:25:46.298Z,40.31
2022-08-10T00:28:34.591Z,40.97
2022-08-10T00:31:22.679Z,40.79
2022-08-10T00:34:10.704Z,40.97
2022-08-10T00:37:00.658Z,40.66
2022-08-10T00:39:48.723Z,40.72
2022-08-10T00:42:36.776Z,39.87
2022-08-10T00:45:24.778Z,40.33
2022-08-10T00:48:12.812Z,40.19
2022-08-10T00:51:01.574Z,39.70
2022-08-10T00:53:51.107Z,40.11
2022-08-10T00:57:17.363Z,40.02
2022-08-10T00:59:59.185Z,40.01
2022-08-10T01:02:48.512Z,39.89
2022-08-10T01:05:51.222Z,39.92
2022-08-10T01:08:52.458Z,40.29
2022-08-10T01:12:39.933Z,40.31
2022-08-10T01:15:02.733Z,40.12
2022-08-10T01:17:55.203Z,40.19
2022-08-10T01:20:59.499Z,40.17
2022-08-10T01:24:09.886Z,40.36
2022-08-10T01:27:19.730Z,40.27
2022-08-10T01:30:18.259Z,40.21
2022-08-10T01:33:10.561Z,40.30
2022-08-10T01:36:04.563Z,40.69
2022-08-10T01:38:53.973Z,40.52
2022-08-10T01:41:46.773Z,40.61
2022-08-10T01:44:37.224Z,40.37
2022-08-10T01:47:51.427Z,40.33
2022-08-10T01:50:59.502Z,41.03
2022-08-10T01:53:54.095Z,40.77
2022-08-10T01:56:46.781Z,40.53
2022-08-10T01:59:37.586Z,40.95
2022-08-10T02:02:30.691Z,40.82
2022-08-10T02:05:19.776Z,40.96
2022-08-10T02:08:12.619Z,41.33
2022-08-10T02:11:02.708Z,41.23
2022-08-10T02:13:52.268Z,41.17
2022-08-10T02:16:43.553Z,41.68
2022-08-10T02:19:36.261Z,41.77
2022-08-10T02:22:36.697Z,41.62
2022-08-10T02:25:41.261Z,41.78
2022-08-10T02:28:34.789Z,41.74
2022-08-10T02:31:25.202Z,41.68
2022-08-10T02:34:16.552Z,41.96
2022-08-10T02:37:11.031Z,41.87
2022-08-10T02:40:01.485Z,41.98
2022-08-10T02:45:27.550Z,42.13
2022-08-10T02:46:08.076Z,42.35
2022-08-10T02:49:02.091Z,42.61
2022-08-10T02:52:08.040Z,42.33
2022-08-10T02:55:17.088Z,42.79
2022-08-10T02:58:17.404Z,42.91
2022-08-10T03:01:14.171Z,43.18
2022-08-10T03:04:07.494Z,43.07
2022-08-10T03:06:59.165Z,42.79
2022-08-10T03:09:49.347Z,43.05
2022-08-10T03:12:40.487Z,43.16
2022-08-10T03:15:30.681Z,43.33
2022-08-10T03:18:22.512Z,43.18
2022-08-10T03:21:12.004Z,43.42
2022-08-10T03:24:02.686Z,43.49
2022-08-10T03:27:12.863Z,44.08
2022-08-10T03:30:29.512Z,43.92
2022-08-10T03:33:11.309Z,44.28
2022-08-10T03:36:42.357Z,44.22
2022-08-10T03:39:08.314Z,44.00
2022-08-10T03:42:00.876Z,44.11
2022-08-10T03:44:50.949Z,44.59
2022-08-10T03:47:43.644Z,44.78
2022-08-10T03:50:51.489Z,44.67
2022-08-10T03:54:04.246Z,44.76
2022-08-10T03:56:49.408Z,45.03
2022-08-10T03:59:38.376Z,45.03
2022-08-10T04:02:52.871Z,45.16
2022-08-10T04:05:38.589Z,45.02
2022-08-10T04:08:27.169Z,45.74
2022-08-10T04:11:15.244Z,45.90
2022-08-10T04:14:03.556Z,46.05
2022-08-10T04:16:51.642Z,45.92
2022-08-10T04:19:45.759Z,46.38
2022-08-10T04:22:37.584Z,46.00
2022-08-10T04:25:27.278Z,45.58
2022-08-10T04:28:15.847Z,45.99
2022-08-10T04:31:05.520Z,46.50
2022-08-10T04:33:55.408Z,46.87
2022-08-10T04:36:45.629Z,46.75
2022-08-10T04:39:35.431Z,46.69
2022-08-10T04:42:24.105Z,46.93
2022-08-10T04:45:14.241Z,47.15
2022-08-10T04:48:03.272Z,47.13
2022-08-10T04:50:51.782Z,47.52
2022-08-10T04:54:04.349Z,47.08
2022-08-10T04:56:49.637Z,47.13
2022-08-10T04:59:37.617Z,47.47
2022-08-10T05:02:31.541Z,47.55
2022-08-10T05:05:20.203Z,47.41
2022-08-10T05:08:08.219Z,47.87
2022-08-10T05:10:56.235Z,47.51
2022-08-10T05:13:45.531Z,47.62
2022-08-10T05:16:35.017Z,47.42
2022-08-10T05:20:03.409Z,47.42
2022-08-10T05:22:31.029Z,47.70
2022-08-10T05:25:20.503Z,48.10
2022-08-10T05:28:08.547Z,47.35
2022-08-10T05:30:58.035Z,47.98
2022-08-10T05:33:46.061Z,47.99
2022-08-10T05:36:34.896Z,47.42
2022-08-10T05:39:28.790Z,46.99
2022-08-10T05:42:21.590Z,46.51
2022-08-10T05:45:21.121Z,47.16
2022-08-10T05:48:56.192Z,46.67
2022-08-10T05:51:19.283Z,46.52
2022-08-10T05:54:14.929Z,46.72
2022-08-10T05:57:03.200Z,46.53
2022-08-10T06:00:11.040Z,46.27
2022-08-10T06:03:11.805Z,45.85
2022-08-10T06:06:01.781Z,46.09
2022-08-10T06:08:51.334Z,45.48
2022-08-10T06:12:24.048Z,44.67
2022-08-10T06:15:05.905Z,44.79
2022-08-10T06:18:01.931Z,44.08
2022-08-10T06:20:53.009Z,44.11
2022-08-10T06:23:42.332Z,43.46
2022-08-10T06:26:30.491Z,43.46
2022-08-10T06:29:20.894Z,43.33
2022-08-10T06:32:10.753Z,43.46
2022-08-10T06:35:01.508Z,43.38
2022-08-10T06:37:52.639Z,42.71
2022-08-10T06:40:44.112Z,42.11
2022-08-10T06:43:34.626Z,42.06
2022-08-10T06:46:24.285Z,41.52
2022-08-10T06:49:14.232Z,42.32
2022-08-10T06:52:03.765Z,41.93
2022-08-10T06:54:56.703Z,41.06
2022-08-10T06:57:45.975Z,41.30
2022-08-10T07:00:51.242Z,40.96
2022-08-10T07:03:45.211Z,40.88
2022-08-10T07:06:35.901Z,40.29
2022-08-10T07:09:24.808Z,39.73
2022-08-10T07:12:15.896Z,39.77
2022-08-10T07:15:04.553Z,39.34
2022-08-10T07:17:54.213Z,38.27
2022-08-10T07:20:43.747Z,38.23
2022-08-10T07:23:58.914Z,37.90
2022-08-10T07:26:47.552Z,37.30
2022-08-10T07:29:54.566Z,36.82
2022-08-10T07:32:45.266Z,36.33
2022-08-10T07:35:42.418Z,35.68
2022-08-10T07:38:34.217Z,35.41
2022-08-10T07:41:24.619Z,34.32
2022-08-10T07:44:13.415Z,33.20
2022-08-10T07:47:05.194Z,32.71
2022-08-10T07:49:56.267Z,32.94
2022-08-10T07:52:46.773Z,31.85
2022-08-10T07:56:04.830Z,31.31
2022-08-10T07:58:51.902Z,29.83
2022-08-10T08:01:45.295Z,30.95
2022-08-10T08:04:35.872Z,31.27
2022-08-10T08:07:24.423Z,31.79
2022-08-10T08:10:13.941Z,32.07
2022-08-10T08:13:03.967Z,31.89
2022-08-10T08:16:21.325Z,32.15
2022-08-10T08:24:05.429Z,32.22
2022-08-10T08:25:23.418Z,32.11
2022-08-10T08:28:12.343Z,32.53
2022-08-10T08:31:00.864Z,31.87
2022-08-10T08:33:50.753Z,32.04
2022-08-10T08:36:41.290Z,32.15
2022-08-10T08:39:33.232Z,30.48
2022-08-10T08:42:49.154Z,30.92
2022-08-10T08:46:01.901Z,30.46
2022-08-10T08:49:09.197Z,30.52
2022-08-10T08:52:18.310Z,30.25
2022-08-10T08:55:50.229Z,30.40
2022-08-10T08:59:02.459Z,29.45
2022-08-10T09:02:01.446Z,29.30
2022-08-10T09:05:04.677Z,29.43
2022-08-10T09:08:07.440Z,29.91
2022-08-10T09:11:01.046Z,29.84
2022-08-10T09:13:55.469Z,29.35
2022-08-10T09:16:54.521Z,29.20
2022-08-10T09:19:48.142Z,28.84
2022-08-10T09:22:57.285Z,28.74
2022-08-10T09:25:53.024Z,29.12
2022-08-10T09:28:44.526Z,27.84
2022-08-10T09:32:54.342Z,28.48
2022-08-10T09:36:28.154Z,27.28
2022-08-10T09:38:32.695Z,27.55
2022-08-10T09:41:30.366Z,28.04
2022-08-10T09:44:30.305Z,27.67
2022-08-10T09:48:02.425Z,27.88
2022-08-10T09:51:41.793Z,27.93
2022-08-10T09:54:08.208Z,26.64
2022-08-10T09:57:43.497Z,26.83
2022-08-10T10:00:22.489Z,26.75
2022-08-10T10:03:20.587Z,26.65
2022-08-10T10:06:20.283Z,26.90
2022-08-10T10:09:13.014Z,26.89
2022-08-10T10:12:12.977Z,26.25
2022-08-10T10:15:24.912Z,26.30
2022-08-10T10:18:31.140Z,26.55
2022-08-10T10:21:54.534Z,26.42
2022-08-10T10:24:42.274Z,26.05
2022-08-10T10:27:48.107Z,26.28
2022-08-10T10:30:45.821Z,26.19
2022-08-10T10:33:54.183Z,27.19
2022-08-10T10:36:44.418Z,26.87
2022-08-10T10:39:33.406Z,26.41
2022-08-10T10:42:44.765Z,26.00
2022-08-10T10:45:50.214Z,26.21
2022-08-10T10:48:48.701Z,25.73
2022-08-10T10:51:45.719Z,25.40
2022-08-10T10:54:42.658Z,25.51
2022-08-10T10:57:58.958Z,25.42
2022-08-10T11:00:57.941Z,26.38
2022-08-10T11:03:58.638Z,26.14
2022-08-10T11:06:58.175Z,26.21
2022-08-10T11:10:08.652Z,26.32
2022-08-10T11:14:25.831Z,25.50
2022-08-10T11:16:28.903Z,25.35
2022-08-10T11:19:24.673Z,26.06
2022-08-10T11:22:19.516Z,26.17
2022-08-10T11:25:13.915Z,25.36
2022-08-10T11:28:09.419Z,25.28
2022-08-10T11:31:02.786Z,25.27
2022-08-10T11:34:46.518Z,24.96
2022-08-10T11:37:17.105Z,24.35
2022-08-10T11:40:19.012Z,25.40
2022-08-10T11:43:12.161Z,24.77
2022-08-10T11:46:16.501Z,24.24
2022-08-10T11:49:12.665Z,24.62
2022-08-10T11:52:06.334Z,24.65
2022-08-10T11:54:58.680Z,23.89
2022-08-10T11:57:53.445Z,24.29
2022-08-10T12:00:42.132Z,24.13
2022-08-10T12:03:35.000Z,24.57
2022-08-10T12:06:53.609Z,24.07
2022-08-10T12:10:05.795Z,24.12
2022-08-10T12:12:51.709Z,24.70
2022-08-10T12:15:44.551Z,24.54
2022-08-10T12:18:36.508Z,23.85
2022-08-10T12:21:28.719Z,23.66
2022-08-10T12:24:24.277Z,23.34
2022-08-10T12:27:17.848Z,23.56
2022-08-10T12:30:09.099Z,23.80
2022-08-10T12:33:03.220Z,24.08
2022-08-10T12:36:18.463Z,23.69
2022-08-10T12:39:14.892Z,24.22
2022-08-10T12:42:10.240Z,24.07
2022-08-10T12:45:04.615Z,22.53
2022-08-10T12:48:01.139Z,23.80
2022-08-10T12:50:56.798Z,23.35
2022-08-10T12:53:53.983Z,23.79
2022-08-10T12:56:47.018Z,23.29
2022-08-10T12:59:43.110Z,23.45
2022-08-10T13:02:34.829Z,23.03
2022-08-10T13:05:27.986Z,22.89
2022-08-10T13:08:33.950Z,22.18
2022-08-10T13:12:36.104Z,22.95
2022-08-10T13:14:38.397Z,22.67
2022-08-10T13:17:39.121Z,22.18
2022-08-10T13:20:32.010Z,22.31
2022-08-10T13:23:23.544Z,22.30
2022-08-10T13:26:15.611Z,21.77
2022-08-10T13:29:12.902Z,21.78
2022-08-10T13:32:09.035Z,21.51
2022-08-10T13:35:03.189Z,21.46
2022-08-10T13:37:55.604Z,22.04
2022-08-10T13:40:49.738Z,21.95
2022-08-10T13:43:38.885Z,22.64
2022-08-10T13:46:27.457Z,21.81
2022-08-10T13:49:16.368Z,21.46
2022-08-10T13:52:05.012Z,21.17
2022-08-10T13:54:56.477Z,21.04
2022-08-10T13:57:49.444Z,21.61
2022-08-10T14:00:42.525Z,20.60
2022-08-10T14:03:37.522Z,21.00
2022-08-10T14:06:29.579Z,21.26
2022-08-10T14:09:18.877Z,20.86
2022-08-10T14:12:11.585Z,20.26
2022-08-10T14:15:01.792Z,21.07
2022-08-10T14:17:56.047Z,21.40
2022-08-10T14:20:45.595Z,21.10
2022-08-10T14:23:35.252Z,21.64
2022-08-10T14:26:26.912Z,20.97
2022-08-10T14:29:19.718Z,20.82
2022-08-10T14:32:10.178Z,20.25
2022-08-10T14:36:18.772Z,21.35
2022-08-10T14:38:13.330Z,21.03
2022-08-10T14:41:03.317Z,21.50
2022-08-10T14:43:57.053Z,21.34
2022-08-10T14:46:51.392Z,21.87
2022-08-10T14:49:58.196Z,22.04
2022-08-10T14:52:48.224Z,21.72
2022-08-10T14:55:58.324Z,23.00
2022-08-10T14:59:05.258Z,22.68
2022-08-10T15:02:40.288Z,22.63
2022-08-10T15:05:12.509Z,22.58
2022-08-10T15:08:00.980Z,22.10
2022-08-10T15:10:51.094Z,22.52
2022-08-10T15:13:44.684Z,22.45
2022-08-10T15:16:54.576Z,21.95
2022-08-10T15:20:03.460Z,21.85
2022-08-10T15:23:02.455Z,21.90
2022-08-10T15:25:56.470Z,21.64
2022-08-10T15:29:24.373Z,22.05
2022-08-10T15:32:14.066Z,22.09
2022-08-10T15:35:25.695Z,22.65
2022-08-10T15:38:18.239Z,22.79
2022-08-10T15:41:11.070Z,22.00
2022-08-10T15:43:59.460Z,22.30
2022-08-10T15:46:52.835Z,22.38
2022-08-10T15:49:48.731Z,22.32
2022-08-10T15:53:01.961Z,22.20
2022-08-10T15:55:52.948Z,21.82
2022-08-10T15:58:48.645Z,22.09
2022-08-10T16:02:04.064Z,22.06
2022-08-10T16:04:58.201Z,23.00
2022-08-10T16:07:52.757Z,22.26
2022-08-10T16:10:53.340Z,22.33
2022-08-10T16:13:59.707Z,22.51
2022-08-10T16:16:55.053Z,22.57
2022-08-10T16:19:49.101Z,23.05
2022-08-10T16:22:37.730Z,22.79
2022-08-10T16:25:51.388Z,23.06
2022-08-10T16:28:43.501Z,23.46
2022-08-10T16:31:33.592Z,22.71
2022-08-10T16:34:23.435Z,23.42
2022-08-10T16:37:15.056Z,22.71
2022-08-10T16:40:05.417Z,23.15
2022-08-10T16:42:56.282Z,23.06
2022-08-10T16:45:48.724Z,23.99
2022-08-10T16:48:49.750Z,23.44
2022-08-10T16:51:40.120Z,21.30
2022-08-10T16:54:29.634Z,20.69
2022-08-10T16:57:19.339Z,20.44
2022-08-10T17:00:10.680Z,19.88
2022-08-10T17:03:22.805Z,20.34
2022-08-10T17:06:19.221Z,18.28
2022-08-10T17:09:14.725Z,17.92
2022-08-10T17:12:10.460Z,18.30
2022-08-10T17:15:09.140Z,20.84
2022-08-10T17:18:03.587Z,22.31
2022-08-10T17:20:52.232Z,23.90
2022-08-10T17:23:46.779Z,24.87
2022-08-10T17:26:37.375Z,24.44
2022-08-10T17:29:57.139Z,24.67
2022-08-10T17:32:44.243Z,24.54
2022-08-10T17:35:37.081Z,25.47
2022-08-10T17:38:27.223Z,26.22
2022-08-10T17:41:17.777Z,26.48
2022-08-10T17:44:08.999Z,26.42
2022-08-10T17:46:57.933Z,26.74
2022-08-10T17:49:47.994Z,26.20
2022-08-10T17:52:37.542Z,27.66
2022-08-10T17:55:31.835Z,27.57
2022-08-10T17:58:24.952Z,27.92
2022-08-10T18:01:41.000Z,29.15
2022-08-10T18:04:34.204Z,28.85
2022-08-10T18:07:35.619Z,29.18
2022-08-10T18:10:26.131Z,29.16
2022-08-10T18:13:18.519Z,29.09
2022-08-10T18:16:07.969Z,29.03
2022-08-10T18:19:00.749Z,29.78
2022-08-10T18:21:50.582Z,30.08
2022-08-10T18:24:40.274Z,30.61
2022-08-10T18:28:00.582Z,31.27
2022-08-10T18:30:29.744Z,30.94
2022-08-10T18:33:27.733Z,30.99
2022-08-10T18:36:18.472Z,31.71
2022-08-10T18:39:07.917Z,31.95
2022-08-10T18:42:05.552Z,32.47
2022-08-10T18:45:01.959Z,33.35
2022-08-10T18:47:59.287Z,33.10
2022-08-10T18:50:50.839Z,33.65
2022-08-10T18:53:48.068Z,34.57
2022-08-10T18:56:51.089Z,35.55
2022-08-10T19:00:07.811Z,36.09
2022-08-10T19:03:19.004Z,36.29
2022-08-10T19:06:20.748Z,36.89
2022-08-10T19:09:45.725Z,37.32
2022-08-10T19:12:45.592Z,37.23
2022-08-10T19:15:40.419Z,37.98
2022-08-10T19:18:38.385Z,39.03
2022-08-10T19:21:32.087Z,39.05
2022-08-10T19:24:26.869Z,39.09
2022-08-10T19:27:29.285Z,39.44
2022-08-10T19:30:19.586Z,40.00
2022-08-10T19:33:22.968Z,40.06
2022-08-10T19:36:18.468Z,40.59
2022-08-10T19:39:17.888Z,40.73
2022-08-10T19:42:12.147Z,41.15
2022-08-10T19:45:12.062Z,41.31
2022-08-10T19:48:27.323Z,41.66
2022-08-10T19:51:20.955Z,41.89
2022-08-10T19:54:14.815Z,42.11
2022-08-10T19:57:10.448Z,42.28
2022-08-10T20:00:19.196Z,42.36
2022-08-10T20:03:17.847Z,42.80
2022-08-10T20:06:19.823Z,43.28
2022-08-10T20:09:15.830Z,43.99
2022-08-10T20:12:07.748Z,44.38
2022-08-10T20:15:02.878Z,44.68
2022-08-10T20:17:56.627Z,44.11
2022-08-10T20:20:50.168Z,44.38
2022-08-10T20:23:55.200Z,44.14
2022-08-10T20:26:52.394Z,44.03
2022-08-10T20:29:59.027Z,44.17
2022-08-10T20:32:52.073Z,44.42
2022-08-10T20:35:51.075Z,44.72
2022-08-10T20:38:47.016Z,44.78
2022-08-10T20:41:53.470Z,44.45
2022-08-10T20:44:50.991Z,44.58
2022-08-10T20:47:56.658Z,44.08
2022-08-10T20:50:48.878Z,44.43
2022-08-10T20:53:45.333Z,44.99
2022-08-10T20:56:38.589Z,44.99
2022-08-10T21:00:03.831Z,45.05
2022-08-10T21:03:20.947Z,44.20
2022-08-10T21:06:42.134Z,43.45
2022-08-10T21:09:49.891Z,44.18
2022-08-10T21:12:56.413Z,44.72
2022-08-10T21:15:56.126Z,44.87
2022-08-10T21:19:01.859Z,45.28
2022-08-10T21:22:04.401Z,45.22
2022-08-10T21:25:01.342Z,44.71
2022-08-10T21:28:13.015Z,45.22
2022-08-10T21:31:16.070Z,45.30
2022-08-10T21:34:19.056Z,45.26
2022-08-10T21:37:12.103Z,45.29
2022-08-10T21:40:35.486Z,44.98
2022-08-10T21:43:57.658Z,45.16
2022-08-10T21:47:31.067Z,44.40
2022-08-10T21:50:45.265Z,45.45
2022-08-10T21:53:57.001Z,44.88
2022-08-10T21:57:09.775Z,44.56
2022-08-10T22:00:22.403Z,44.57
2022-08-10T22:03:39.616Z,44.63
2022-08-10T22:06:52.197Z,44.27
2022-08-10T22:10:03.923Z,44.40
2022-08-10T22:13:12.492Z,44.75
2022-08-10T22:16:20.752Z,44.88
2022-08-10T22:19:30.525Z,45.45
2022-08-10T22:22:46.510Z,45.14
2022-08-10T22:26:15.323Z,45.01
2022-08-10T22:29:42.172Z,45.14
2022-08-10T22:32:58.647Z,44.50
2022-08-10T22:36:35.019Z,44.93
2022-08-10T22:40:12.582Z,44.52
2022-08-10T22:43:35.877Z,45.10
2022-08-10T22:46:46.436Z,45.37
2022-08-10T22:49:34.193Z,45.69
2022-08-10T22:52:26.886Z,45.58
2022-08-10T22:55:36.352Z,45.79
2022-08-10T22:58:39.665Z,45.10
2022-08-10T23:01:42.088Z,45.10
2022-08-10T23:04:56.393Z,45.51
2022-08-10T23:07:50.168Z,45.57
2022-08-10T23:10:42.268Z,45.32
2022-08-10T23:13:36.179Z,45.40
2022-08-10T23:16:47.179Z,44.91
2022-08-10T23:19:41.531Z,45.18
2022-08-10T23:22:35.925Z,45.06
2022-08-10T23:25:30.178Z,45.24
2022-08-10T23:28:38.556Z,44.56
2022-08-10T23:32:00.847Z,44.19
2022-08-10T23:34:45.251Z,44.62
2022-08-10T23:37:55.651Z,44.27
2022-08-10T23:40:50.691Z,44.34
2022-08-10T23:44:03.311Z,44.01
2022-08-10T23:46:53.526Z,44.09
2022-08-10T23:49:43.113Z,44.02
2022-08-10T23:52:34.553Z,44.19
2022-08-10T23:55:25.598Z,43.84
2022-08-10T23:58:32.902Z,44.09
